Time;durP1;ratioP1;P1;durP2;ratioP2;P2;SDS_P1;SDS_P2;PMS_P1;PMS_P2;Temp;Humidity;BMP_temperature;BMP_pressure;BME280_temperature;BME280_humidity;BME280_pressure;Samples;Min_cycle;Max_cycle;Signal;HPM_P1;HPM_P2
2021/06/08 00:02:15;;;;;;;;;;;;;;;24.73;37.59;101709.00;5026491;27;101163;-86
2021/06/08 00:04:41;;;;;;;;;;;;;;;24.96;36.77;101700.78;5022553;28;99750;-86
2021/06/08 00:07:09;;;;;;;;;;;;;;;24.54;37.42;101712.31;5008122;28;96457;-87
2021/06/08 00:09:35;;;;;;;;;;;;;;;24.42;37.78;101710.53;5002769;28;96711;-87
2021/06/08 00:12:01;;;;;;;;;;;;;;;24.55;37.50;101708.59;5016746;28;98101;-86
2021/06/08 00:14:27;;;;;;;;;;;;;;;24.41;37.97;101714.25;5007218;28;99554;-86
2021/06/08 00:16:54;;;;;;;;;;;;;;;24.50;38.17;101713.50;5008523;28;96875;-87
2021/06/08 00:19:20;;;;;;;;;;;;;;;24.32;38.57;101710.41;5010414;28;96966;-87
2021/06/08 00:21:46;;;;;;;;;;;;;;;24.29;38.38;101707.94;5006133;28;101833;-86
2021/06/08 00:24:12;;;;;;;;;;;;;;;24.17;38.95;101714.25;5006050;28;100917;-86
2021/06/08 00:26:38;;;;;;;;;;;;;;;24.48;38.06;101713.63;4989205;28;97120;-86
2021/06/08 00:29:10;;;;;;;;;;;;;;;24.54;37.54;101712.31;5005975;28;97442;-86
2021/06/08 00:31:36;;;;;;;;;;;;;;;24.61;36.86;101714.38;5005854;28;100327;-86
2021/06/08 00:34:03;;;;;;;;;;;;;;;24.67;36.41;101709.50;5014548;28;98930;-86
2021/06/08 00:36:29;;;;;;;;;;;;;;;24.27;37.33;101717.16;5004817;28;96727;-87
2021/06/08 00:38:55;;;;;;;;;;;;;;;23.99;37.94;101718.38;4989042;28;96965;-87
2021/06/08 00:41:31;;;;;;;;;;;;;;;24.20;38.47;101722.19;5010329;28;98501;-86
2021/06/08 00:44:01;;;;;;;;;;;;;;;24.18;38.52;101718.69;5004615;28;98056;-85
2021/06/08 00:46:26;;;;;;;;;;;;;;;24.40;38.03;101718.78;5005768;28;97314;-85
2021/06/08 00:48:52;;;;;;;;;;;;;;;24.26;38.25;101726.22;5019085;28;98293;-86
2021/06/08 00:51:20;;;;;;;;;;;;;;;24.26;37.87;101720.84;5007121;28;97176;-86
2021/06/08 00:53:46;;;;;;;;;;;;;;;23.95;38.88;101719.59;5005274;28;99976;-86
2021/06/08 00:56:11;;;;;;;;;;;;;;;24.19;38.32;101721.31;5003220;28;97089;-86
2021/06/08 00:58:37;;;;;;;;;;;;;;;24.02;38.72;101731.66;5003760;28;96782;-86
2021/06/08 01:01:03;;;;;;;;;;;;;;;23.86;39.41;101723.84;5005098;28;98294;-84
2021/06/08 01:03:32;;;;;;;;;;;;;;;23.93;39.49;101725.13;5008111;28;98080;-85
2021/06/08 01:05:57;;;;;;;;;;;;;;;24.29;38.78;101725.97;5005009;28;96793;-85
2021/06/08 01:08:25;;;;;;;;;;;;;;;24.32;38.52;101723.91;5004526;28;96979;-85
2021/06/08 01:10:51;;;;;;;;;;;;;;;24.04;38.75;101721.59;5005292;28;99373;-86
2021/06/08 01:13:17;;;;;;;;;;;;;;;24.09;38.64;101722.94;5005351;28;100602;-86
2021/06/08 01:15:44;;;;;;;;;;;;;;;24.01;38.60;101720.00;5009152;28;96812;-86
2021/06/08 01:18:10;;;;;;;;;;;;;;;24.26;37.88;101716.28;5005308;28;96903;-87
2021/06/08 01:20:36;;;;;;;;;;;;;;;24.09;38.12;101719.41;5003303;28;98400;-86
2021/06/08 01:23:03;;;;;;;;;;;;;;;24.38;38.02;101720.75;5002794;28;98531;-86
2021/06/08 01:25:29;;;;;;;;;;;;;;;23.91;39.24;101720.81;5003818;28;97455;-86
2021/06/08 01:27:55;;;;;;;;;;;;;;;24.05;39.05;101717.91;5004517;28;97275;-86
2021/06/08 01:30:23;;;;;;;;;;;;;;;24.26;38.96;101718.13;5003794;28;100593;-86
2021/06/08 01:32:50;;;;;;;;;;;;;;;24.10;38.89;101716.56;5006848;28;98238;-86
2021/06/08 01:35:17;;;;;;;;;;;;;;;24.17;38.61;101711.56;5009564;28;96808;-87
2021/06/08 01:37:44;;;;;;;;;;;;;;;23.87;39.26;101712.09;5002573;28;97918;-85
2021/06/08 01:40:14;;;;;;;;;;;;;;;23.54;38.41;101706.53;4990417;28;98099;-87
2021/06/08 01:42:40;;;;;;;;;;;;;;;23.94;37.91;101712.47;4992575;28;98958;-85
2021/06/08 01:45:07;;;;;;;;;;;;;;;24.02;37.40;101702.81;5011551;28;96840;-86
2021/06/08 01:47:39;;;;;;;;;;;;;;;23.63;37.48;101706.69;5016575;28;96893;-86
2021/06/08 01:50:05;;;;;;;;;;;;;;;23.33;38.96;101706.25;5011946;28;99009;-87
2021/06/08 01:52:36;;;;;;;;;;;;;;;23.49;38.55;101701.50;5025216;28;99119;-86
2021/06/08 01:55:04;;;;;;;;;;;;;;;23.27;38.31;101699.47;5031018;28;96663;-85
2021/06/08 01:57:34;;;;;;;;;;;;;;;23.15;38.46;101697.69;5024128;28;96527;-85
2021/06/08 02:00:03;;;;;;;;;;;;;;;23.71;37.81;101698.88;5022840;28;98194;-85
2021/06/08 02:02:33;;;;;;;;;;;;;;;23.74;38.77;101695.97;5014048;28;99837;-85
2021/06/08 02:05:08;;;;;;;;;;;;;;;24.14;38.58;101701.00;5025993;28;96556;-83
2021/06/08 02:07:36;;;;;;;;;;;;;;;23.90;38.55;101703.75;5026053;28;96563;-85
2021/06/08 02:10:07;;;;;;;;;;;;;;;23.76;38.69;101707.47;5015137;28;98211;-84
2021/06/08 02:12:34;;;;;;;;;;;;;;;23.48;39.21;101696.19;5019023;28;97967;-85
2021/06/08 02:15:05;;;;;;;;;;;;;;;23.80;38.62;101702.72;5013889;28;97823;-84
2021/06/08 02:17:32;;;;;;;;;;;;;;;23.84;38.00;101705.06;5014049;28;96687;-84
2021/06/08 02:20:02;;;;;;;;;;;;;;;23.41;38.31;101706.56;5025523;28;99459;-85
2021/06/08 02:22:30;;;;;;;;;;;;;;;23.80;37.49;101711.69;5031545;28;100218;-85
2021/06/08 02:24:56;;;;;;;;;;;;;;;24.00;37.60;101709.31;5030717;28;96622;-86
2021/06/08 02:27:23;;;;;;;;;;;;;;;23.97;37.64;101714.94;5013106;28;96465;-85
2021/06/08 02:29:57;;;;;;;;;;;;;;;23.95;37.98;101711.50;5019088;28;99466;-87
2021/06/08 02:32:23;;;;;;;;;;;;;;;24.04;37.28;101716.19;5014853;28;100346;-86
2021/06/08 02:34:50;;;;;;;;;;;;;;;24.12;37.09;101711.94;5013149;28;96483;-88
2021/06/08 02:37:18;;;;;;;;;;;;;;;24.01;37.27;101711.03;5015273;28;97183;-86
2021/06/08 02:39:44;;;;;;;;;;;;;;;23.87;37.66;101706.69;5019178;28;100145;-86
2021/06/08 02:42:12;;;;;;;;;;;;;;;24.09;37.05;101714.03;5029023;28;96745;-84
2021/06/08 02:44:40;;;;;;;;;;;;;;;24.08;37.05;101710.44;5013381;28;96338;-85
2021/06/08 02:47:08;;;;;;;;;;;;;;;24.45;36.41;101711.19;5014796;28;96766;-84
2021/06/08 02:49:35;;;;;;;;;;;;;;;24.12;37.21;101713.75;5017478;28;98736;-85
2021/06/08 02:52:01;;;;;;;;;;;;;;;24.21;37.58;101716.66;5023996;28;99492;-85
2021/06/08 02:54:27;;;;;;;;;;;;;;;24.06;37.46;101707.00;5020480;28;96900;-86
2021/06/08 02:56:53;;;;;;;;;;;;;;;23.87;37.06;101716.63;5024983;28;96845;-85
2021/06/08 02:59:20;;;;;;;;;;;;;;;23.96;36.65;101710.53;5004017;28;99306;-85
2021/06/08 03:01:50;;;;;;;;;;;;;;;24.31;36.45;101714.09;5002886;28;99347;-84
2021/06/08 03:04:19;;;;;;;;;;;;;;;24.09;36.39;101719.41;5003427;28;97418;-86
2021/06/08 03:06:48;;;;;;;;;;;;;;;24.13;37.74;101721.75;5004018;28;97785;-86
2021/06/08 03:09:15;;;;;;;;;;;;;;;24.11;37.46;101726.41;5013336;28;99541;-85
2021/06/08 03:11:43;;;;;;;;;;;;;;;24.00;38.36;101722.81;5018996;28;99389;-86
2021/06/08 03:14:11;;;;;;;;;;;;;;;24.09;38.52;101719.41;5017721;28;96565;-86
2021/06/08 03:16:39;;;;;;;;;;;;;;;23.97;38.50;101732.00;5012255;28;97162;-87
2021/06/08 03:19:07;;;;;;;;;;;;;;;24.27;38.29;101728.81;5016554;28;98230;-87
2021/06/08 03:21:37;;;;;;;;;;;;;;;24.19;37.27;101729.41;5019454;28;99901;-87
2021/06/08 03:24:05;;;;;;;;;;;;;;;23.89;37.69;101734.44;5022060;28;95889;-87
2021/06/08 03:26:34;;;;;;;;;;;;;;;23.97;39.60;101737.38;5016688;28;96965;-88
2021/06/08 03:29:01;;;;;;;;;;;;;;;23.63;40.41;101733.66;5012517;28;99562;-87
2021/06/08 03:31:27;;;;;;;;;;;;;;;23.40;40.55;101732.66;5015881;28;97008;-84
2021/06/08 03:33:53;;;;;;;;;;;;;;;23.59;40.50;101736.72;5012621;28;96759;-84
2021/06/08 03:36:20;;;;;;;;;;;;;;;23.59;40.16;101740.28;5010027;28;96804;-84
2021/06/08 03:38:49;;;;;;;;;;;;;;;23.61;39.80;101734.78;5002210;28;101931;-84
2021/06/08 03:41:15;;;;;;;;;;;;;;;23.64;40.42;101739.94;5002262;28;98244;-85
2021/06/08 03:43:41;;;;;;;;;;;;;;;23.64;39.56;101734.53;5016520;28;96752;-85
2021/06/08 03:46:07;;;;;;;;;;;;;;;23.79;39.72;101738.78;5005257;28;96848;-85
2021/06/08 03:48:33;;;;;;;;;;;;;;;23.59;40.28;101732.19;5008203;28;98059;-85
2021/06/08 03:50:59;;;;;;;;;;;;;;;23.80;38.17;101729.72;5006900;28;100300;-85
2021/06/08 03:53:25;;;;;;;;;;;;;;;23.94;38.16;101731.38;5009173;28;97239;-85
2021/06/08 03:55:53;;;;;;;;;;;;;;;23.99;38.12;101729.19;5009939;28;96776;-84
2021/06/08 03:58:20;;;;;;;;;;;;;;;24.34;37.46;101729.22;5007919;28;98180;-84
2021/06/08 04:00:48;;;;;;;;;;;;;;;24.38;36.91;101734.25;5016968;28;101002;-85
2021/06/08 04:03:14;;;;;;;;;;;;;;;24.39;37.08;101737.81;5019440;28;96580;-86
2021/06/08 04:05:41;;;;;;;;;;;;;;;24.52;36.69;101730.47;5016816;28;96637;-85
2021/06/08 04:08:08;;;;;;;;;;;;;;;24.06;37.59;101734.00;5016399;28;97856;-85
2021/06/08 04:10:35;;;;;;;;;;;;;;;23.69;38.52;101735.06;5020778;28;97690;-84
2021/06/08 04:13:03;;;;;;;;;;;;;;;23.52;38.91;101739.00;5014884;28;96634;-84
2021/06/08 04:15:29;;;;;;;;;;;;;;;23.80;38.26;101735.13;5012967;28;97099;-85
2021/06/08 04:17:55;;;;;;;;;;;;;;;24.51;37.17;101737.72;5008392;28;99293;-84
2021/06/08 04:20:22;;;;;;;;;;;;;;;24.75;37.54;101740.31;5013178;28;99256;-85
2021/06/08 04:22:48;;;;;;;;;;;;;;;24.54;39.11;101740.19;5019850;28;96567;-85
2021/06/08 04:25:16;;;;;;;;;;;;;;;24.89;37.26;101747.31;5020942;28;96485;-84
2021/06/08 04:27:42;;;;;;;;;;;;;;;24.97;36.36;101751.16;5018453;28;101538;-85
2021/06/08 04:30:11;;;;;;;;;;;;;;;24.89;36.57;101747.31;5019464;28;99461;-85
2021/06/08 04:32:37;;;;;;;;;;;;;;;24.71;36.92;101752.34;5020905;28;96652;-84
2021/06/08 04:35:04;;;;;;;;;;;;;;;24.84;37.00;101745.00;5022032;28;97018;-85
2021/06/08 04:37:31;;;;;;;;;;;;;;;25.09;37.26;101745.75;5021218;28;98907;-85
2021/06/08 04:39:56;;;;;;;;;;;;;;;24.71;37.15;101746.94;5011530;28;99457;-84
2021/06/08 04:42:23;;;;;;;;;;;;;;;25.26;36.41;101748.84;4997315;28;96628;-85
2021/06/08 04:44:59;;;;;;;;;;;;;;;24.86;36.56;101750.28;5009888;28;96764;-85
2021/06/08 04:47:31;;;;;;;;;;;;;;;25.17;36.48;101740.59;5005785;28;99711;-85
2021/06/08 04:49:57;;;;;;;;;;;;;;;24.59;37.52;101750.63;5003188;28;99434;-86
2021/06/08 04:52:23;;;;;;;;;;;;;;;24.62;37.31;101753.06;5008889;28;97241;-85
2021/06/08 04:54:49;;;;;;;;;;;;;;;25.08;37.22;101752.13;4991137;28;97184;-87
2021/06/08 04:57:16;;;;;;;;;;;;;;;25.24;36.92;101752.63;4998350;28;99479;-86
2021/06/08 04:59:46;;;;;;;;;;;;;;;25.52;36.14;101754.81;5000537;28;96766;-87
2021/06/08 05:02:15;;;;;;;;;;;;;;;25.27;36.73;101755.94;4981206;28;96716;-87
2021/06/08 05:04:48;;;;;;;;;;;;;;;25.17;36.98;101756.81;4985139;28;96785;-85
2021/06/08 05:07:16;;;;;;;;;;;;;;;25.82;35.53;101764.09;4989436;28;100663;-86
2021/06/08 05:09:45;;;;;;;;;;;;;;;25.91;35.86;101766.03;5006586;28;97967;-86
2021/06/08 05:12:13;;;;;;;;;;;;;;;25.96;35.42;101763.81;4986106;28;96510;-87
2021/06/08 05:14:45;;;;;;;;;;;;;;;26.39;35.18;101764.59;5003085;28;95973;-83
2021/06/08 05:17:14;;;;;;;;;;;;;;;26.27;35.57;101764.78;4999556;28;97103;-89
2021/06/08 05:19:49;;;;;;;;;;;;;;;26.02;35.92;101771.41;5003925;28;99977;-84
2021/06/08 05:22:29;;;;;;;;;;;;;;;26.11;36.02;101762.50;5017500;28;96126;-88
2021/06/08 05:27:39;;;;;;;;;;;;;;;26.08;36.23;101773.59;5000571;28;98865;-84
2021/06/08 05:30:07;;;;;;;;;;;;;;;25.65;37.06;101769.09;5014593;28;99498;-83
2021/06/08 05:32:33;;;;;;;;;;;;;;;26.22;36.36;101772.44;4987491;28;96399;-83
2021/06/08 05:35:00;;;;;;;;;;;;;;;26.30;36.32;101773.53;4994224;28;96755;-82
2021/06/08 05:37:29;;;;;;;;;;;;;;;26.73;35.70;101780.66;4982657;28;97935;-82
2021/06/08 05:39:59;;;;;;;;;;;;;;;25.88;37.25;101775.28;5001439;28;100394;-83
2021/06/08 05:42:25;;;;;;;;;;;;;;;25.68;37.50;101774.22;4998611;28;96823;-82
2021/06/08 05:44:52;;;;;;;;;;;;;;;25.56;38.22;101780.63;4983814;28;96714;-82
2021/06/08 05:47:18;;;;;;;;;;;;;;;25.06;39.04;101773.06;4990982;28;98676;-83
2021/06/08 05:49:44;;;;;;;;;;;;;;;25.41;38.16;101776.44;4993533;28;98192;-83
2021/06/08 05:52:11;;;;;;;;;;;;;;;25.04;39.08;101784.00;4985501;28;97691;-80
2021/06/08 05:54:42;;;;;;;;;;;;;;;25.02;39.23;101781.41;4979278;28;96872;-83
2021/06/08 05:57:10;;;;;;;;;;;;;;;25.28;38.50;101781.16;4973571;28;98116;-85
2021/06/08 05:59:37;;;;;;;;;;;;;;;25.45;38.16;101782.50;4984164;28;99791;-84
2021/06/08 06:02:06;;;;;;;;;;;;;;;25.38;38.48;101782.13;4980823;28;96989;-84
2021/06/08 06:04:32;;;;;;;;;;;;;;;25.69;38.26;101781.34;4986787;28;96739;-88
2021/06/08 06:07:00;;;;;;;;;;;;;;;26.32;36.98;101784.25;4969102;28;99272;-87
2021/06/08 06:09:31;;;;;;;;;;;;;;;25.59;38.61;101785.81;4987156;28;100928;-88
2021/06/08 06:12:06;;;;;;;;;;;;;;;25.61;38.09;101783.84;4982358;28;96658;-89
2021/06/08 06:17:19;;;;;;;;;;;;;;;25.95;37.93;101790.00;4988989;28;99291;-88
2021/06/08 06:19:45;;;;;;;;;;;;;;;25.74;38.18;101784.53;5002408;28;100718;-87
2021/06/08 06:22:11;;;;;;;;;;;;;;;25.61;38.31;101783.84;5003223;28;96699;-87
2021/06/08 06:24:39;;;;;;;;;;;;;;;25.97;38.06;101785.34;4995495;28;97487;-85
2021/06/08 06:27:07;;;;;;;;;;;;;;;26.10;38.05;101794.16;4997910;28;98993;-82
2021/06/08 06:29:35;;;;;;;;;;;;;;;25.90;37.59;101784.13;4995465;28;101077;-85
2021/06/08 06:32:01;;;;;;;;;;;;;;;26.04;37.45;101791.97;4995859;28;96375;-85
2021/06/08 06:34:28;;;;;;;;;;;;;;;25.95;37.31;101786.44;4995147;28;96640;-88
2021/06/08 06:36:57;;;;;;;;;;;;;;;26.06;37.08;101791.81;4994512;28;98316;-89
2021/06/08 06:39:24;;;;;;;;;;;;;;;26.09;36.57;101794.28;4996472;28;98140;-89
2021/06/08 06:41:57;;;;;;;;;;;;;;;26.00;36.74;101790.47;4991951;28;96174;-88
2021/06/08 06:44:28;;;;;;;;;;;;;;;26.38;36.87;101803.56;4997218;28;97058;-89
2021/06/08 06:46:54;;;;;;;;;;;;;;;27.07;35.52;101797.56;4998153;28;98355;-88
2021/06/08 06:49:25;;;;;;;;;;;;;;;26.94;35.55;101804.06;4998333;28;99268;-90
2021/06/08 06:52:02;;;;;;;;;;;;;;;26.65;36.35;101803.00;4980061;28;96796;-90
2021/06/08 06:54:30;;;;;;;;;;;;;;;26.81;36.16;101813.38;4993728;28;97003;-90
2021/06/08 06:56:57;;;;;;;;;;;;;;;27.13;35.37;101797.88;4994124;28;96897;-88
2021/06/08 07:02:23;;;;;;;;;;;;;;;28.08;33.67;101799.16;4984987;28;96807;-90
2021/06/08 07:04:51;;;;;;;;;;;;;;;27.00;35.72;101801.81;4987317;28;97023;-86
2021/06/08 07:12:48;;;;;;;;;;;;;;;28.49;33.09;101792.56;4985925;28;97527;-85
2021/06/08 07:15:14;;;;;;;;;;;;;;;28.55;32.99;101793.88;4984361;28;97357;-87
2021/06/08 07:17:44;;;;;;;;;;;;;;;28.88;32.36;101796.09;4985288;28;99369;-87
2021/06/08 07:20:31;;;;;;;;;;;;;;;29.15;32.11;101798.00;4987044;28;99013;-84
2021/06/08 07:22:58;;;;;;;;;;;;;;;29.17;32.00;101800.56;4985249;28;96696;-86
2021/06/08 07:25:25;;;;;;;;;;;;;;;29.40;31.53;101798.38;4986688;28;96704;-87
2021/06/08 07:27:52;;;;;;;;;;;;;;;29.43;31.29;101796.19;4987799;28;99542;-88
2021/06/08 07:30:21;;;;;;;;;;;;;;;29.16;31.73;101786.09;4967409;28;98745;-87
2021/06/08 07:32:56;;;;;;;;;;;;;;;29.24;31.39;101797.13;4978860;28;97026;-87
2021/06/08 07:35:28;;;;;;;;;;;;;;;29.14;31.40;101796.31;4988087;28;96831;-87
2021/06/08 07:38:18;;;;;;;;;;;;;;;28.95;31.73;101790.09;4988228;28;98758;-84
2021/06/08 07:40:56;;;;;;;;;;;;;;;29.17;30.76;101789.69;4994360;28;96869;-86
2021/06/08 07:43:25;;;;;;;;;;;;;;;29.53;30.12;101780.66;5006624;28;96788;-88
2021/06/08 07:45:53;;;;;;;;;;;;;;;29.75;29.63;101779.34;4984766;28;97116;-88
2021/06/08 07:48:30;;;;;;;;;;;;;;;29.36;30.15;101788.78;5012968;28;98894;-87
2021/06/08 07:53:42;;;;;;;;;;;;;;;29.59;28.52;101779.19;5006453;28;97081;-89
2021/06/08 07:56:13;;;;;;;;;;;;;;;29.80;28.35;101787.09;4995967;28;96798;-89
2021/06/08 07:58:40;;;;;;;;;;;;;;;30.01;28.37;101779.47;5015436;28;98978;-88
2021/06/08 08:01:08;;;;;;;;;;;;;;;29.84;27.39;101783.03;5011640;28;100033;-84
2021/06/08 08:06:31;;;;;;;;;;;;;;;29.33;28.24;101779.03;4995609;28;97120;-84
2021/06/08 08:08:59;;;;;;;;;;;;;;;29.47;27.10;101772.25;5017977;28;99385;-85
2021/06/08 08:11:28;;;;;;;;;;;;;;;29.43;27.97;101774.41;5005171;28;96766;-85
2021/06/08 08:13:57;;;;;;;;;;;;;;;29.71;27.67;101778.81;5004425;28;97653;-85
2021/06/08 08:16:26;;;;;;;;;;;;;;;29.82;27.29;101775.00;5017071;28;96907;-83
2021/06/08 08:18:53;;;;;;;;;;;;;;;30.11;26.59;101780.28;5016419;28;96694;-83
2021/06/08 08:21:20;;;;;;;;;;;;;;;29.82;26.30;101780.47;5002058;28;100825;-84
2021/06/08 08:23:54;;;;;;;;;;;;;;;29.41;26.43;101789.16;5007790;28;97009;-82
2021/06/08 08:26:21;;;;;;;;;;;;;;;28.75;28.11;101789.28;5021420;28;96602;-83
2021/06/08 08:28:49;;;;;;;;;;;;;;;29.57;26.93;101779.34;5011661;28;99132;-84
2021/06/08 08:31:28;;;;;;;;;;;;;;;29.73;26.77;101778.69;5013823;28;98417;-84
2021/06/08 08:33:55;;;;;;;;;;;;;;;29.65;26.87;101778.59;5022926;28;96980;-85
2021/06/08 08:36:21;;;;;;;;;;;;;;;29.19;25.55;101782.25;5015260;28;97187;-84
2021/06/08 08:38:49;;;;;;;;;;;;;;;29.85;25.08;101779.31;5018614;28;100978;-86
2021/06/08 08:44:00;;;;;;;;;;;;;;;29.17;26.56;101770.63;5014045;28;96774;-85
2021/06/08 08:46:29;;;;;;;;;;;;;;;29.49;25.71;101779.25;5019602;28;96856;-88
2021/06/08 08:49:16;;;;;;;;;;;;;;;29.95;25.58;101774.66;5016178;28;96934;-84
2021/06/08 08:51:43;;;;;;;;;;;;;;;28.90;26.46;101775.03;5008406;28;98239;-86
2021/06/08 08:54:13;;;;;;;;;;;;;;;29.06;27.03;101782.59;5012794;28;96697;-85
2021/06/08 08:56:41;;;;;;;;;;;;;;;29.73;26.48;101772.38;4996259;28;96908;-86
2021/06/08 08:59:08;;;;;;;;;;;;;;;30.12;25.78;101770.22;5022677;28;98242;-84
2021/06/08 09:01:35;;;;;;;;;;;;;;;30.10;25.81;101773.97;5017600;28;98055;-86
2021/06/08 09:04:02;;;;;;;;;;;;;;;30.16;25.86;101772.47;5014103;28;96472;-85
2021/06/08 09:06:29;;;;;;;;;;;;;;;30.21;26.31;101770.13;5026431;28;97014;-86
2021/06/08 09:08:58;;;;;;;;;;;;;;;30.45;25.31;101764.91;5020689;28;99441;-84
2021/06/08 09:11:26;;;;;;;;;;;;;;;30.02;25.65;101762.97;5013237;28;99411;-84
2021/06/08 09:13:59;;;;;;;;;;;;;;;29.66;26.33;101763.97;5023843;28;96594;-84
2021/06/08 09:16:26;;;;;;;;;;;;;;;30.34;25.74;101767.84;5010435;28;96670;-86
2021/06/08 09:21:54;;;;;;;;;;;;;;;30.14;26.61;101763.59;4998878;28;100981;-86
2021/06/08 09:27:24;;;;;;;;;;;;;;;30.63;25.74;101769.47;5014435;28;96827;-84
2021/06/08 09:30:13;;;;;;;;;;;;;;;30.55;25.86;101769.41;4989268;28;98589;-85
2021/06/08 09:32:41;;;;;;;;;;;;;;;30.98;25.27;101769.34;5011078;28;99584;-85
2021/06/08 09:37:48;;;;;;;;;;;;;;;30.82;25.36;101769.25;5009113;28;97292;-85
2021/06/08 09:40:25;;;;;;;;;;;;;;;31.13;25.29;101762.28;4998943;28;101094;-84
2021/06/08 09:43:11;;;;;;;;;;;;;;;30.95;25.49;101761.47;4995783;28;98068;-85
2021/06/08 09:45:40;;;;;;;;;;;;;;;30.95;25.29;101768.81;4996040;28;97654;-85
2021/06/08 09:48:13;;;;;;;;;;;;;;;30.55;26.23;101773.00;5008148;28;97117;-85
2021/06/08 09:50:42;;;;;;;;;;;;;;;29.91;26.93;101765.06;4972946;28;98066;-85
2021/06/08 09:53:16;;;;;;;;;;;;;;;30.10;26.69;101762.22;4995402;28;101368;-85
2021/06/08 09:55:49;;;;;;;;;;;;;;;30.03;26.96;101763.84;4990910;28;96784;-85
2021/06/08 09:58:18;;;;;;;;;;;;;;;30.05;26.81;101753.66;4986816;28;98385;-86
2021/06/08 10:01:04;;;;;;;;;;;;;;;30.08;26.84;101759.63;4990398;28;98972;-86
2021/06/08 10:03:44;;;;;;;;;;;;;;;30.51;25.93;101759.84;4973905;28;98548;-86
2021/06/08 10:06:11;;;;;;;;;;;;;;;30.72;25.77;101761.16;4995222;28;96802;-86
2021/06/08 10:11:23;;;;;;;;;;;;;;;29.93;26.94;101761.19;4998466;28;99283;-83
2021/06/08 10:16:32;;;;;;;;;;;;;;;30.38;26.08;101762.97;4993950;28;96681;-85
2021/06/08 10:24:50;;;;;;;;;;;;;;;30.52;26.84;101761.56;4991559;28;98331;-83
2021/06/08 10:27:27;;;;;;;;;;;;;;;30.91;26.50;101762.84;4991214;28;96704;-85
2021/06/08 10:29:54;;;;;;;;;;;;;;;30.89;26.61;101760.25;5000876;28;96799;-87
2021/06/08 10:32:21;;;;;;;;;;;;;;;29.67;28.20;101755.63;4998391;28;96565;-87
2021/06/08 10:34:48;;;;;;;;;;;;;;;30.32;27.26;101753.53;4984304;28;101169;-85
2021/06/08 10:37:24;;;;;;;;;;;;;;;30.98;26.61;101758.44;4987738;28;96727;-86
2021/06/08 10:39:54;;;;;;;;;;;;;;;31.49;26.21;101745.69;5000663;28;96560;-89
2021/06/08 10:42:26;;;;;;;;;;;;;;;31.14;26.41;101758.53;5011764;28;99317;-89
2021/06/08 10:45:00;;;;;;;;;;;;;;;31.09;26.15;101758.19;5071143;22;99411;-88
2021/06/08 10:50:32;;;;;;;;;;;;;;;31.70;25.27;101748.00;5022890;28;97070;-86
2021/06/08 10:53:00;;;;;;;;;;;;;;;31.41;25.18;101757.44;5027434;28;98069;-86
2021/06/08 10:55:35;;;;;;;;;;;;;;;30.56;27.90;101747.44;5041904;27;98449;-86
2021/06/08 10:58:26;;;;;;;;;;;;;;;29.86;29.00;101746.47;5025570;28;96568;-86
2021/06/08 11:00:57;;;;;;;;;;;;;;;28.86;30.95;101759.19;5026418;28;96982;-91
2021/06/08 11:06:44;;;;;;;;;;;;;;;28.93;31.14;101755.72;5039880;28;98967;-89
2021/06/08 11:14:48;;;;;;;;;;;;;;;29.63;30.35;101747.91;5028036;28;98846;-85
2021/06/08 11:17:18;;;;;;;;;;;;;;;30.39;29.40;101762.78;5036585;28;98708;-87
2021/06/08 11:19:52;;;;;;;;;;;;;;;30.11;29.76;101758.47;5032547;28;96640;-87
2021/06/08 11:22:44;;;;;;;;;;;;;;;30.11;29.67;101753.03;5031666;28;96989;-87
2021/06/08 11:28:20;;;;;;;;;;;;;;;30.10;29.43;101751.31;5035038;28;96188;-82
2021/06/08 11:31:09;;;;;;;;;;;;;;;31.17;27.94;101743.72;5020262;28;96589;-85
2021/06/08 11:33:39;;;;;;;;;;;;;;;31.61;27.21;101744.38;5027288;28;97253;-86
2021/06/08 11:36:23;;;;;;;;;;;;;;;31.43;26.84;101740.91;5034240;28;100021;-87
2021/06/08 11:38:51;;;;;;;;;;;;;;;32.32;25.61;101743.78;5019962;28;96702;-86
2021/06/08 11:41:22;;;;;;;;;;;;;;;32.77;25.17;101737.75;5040351;28;96725;-85
2021/06/08 11:43:52;;;;;;;;;;;;;;;31.71;26.45;101728.69;5033970;28;96468;-88
2021/06/08 11:49:25;;;;;;;;;;;;;;;30.35;28.24;101736.84;5003556;28;97126;-85
2021/06/08 11:51:54;;;;;;;;;;;;;;;30.81;27.64;101734.78;5035589;28;96754;-86
2021/06/08 11:54:37;;;;;;;;;;;;;;;31.49;26.84;101729.31;5026371;28;97952;-86
2021/06/08 12:02:37;;;;;;;;;;;;;;;31.21;27.17;101734.16;5025058;28;96827;-87
2021/06/08 12:08:22;;;;;;;;;;;;;;;31.50;26.52;101725.56;5027269;28;97695;-86
2021/06/08 12:10:53;;;;;;;;;;;;;;;31.30;26.63;101726.88;5043891;27;100634;-89
2021/06/08 12:16:29;;;;;;;;;;;;;;;30.21;28.30;101726.50;5034587;28;96233;-89
2021/06/08 12:21:43;;;;;;;;;;;;;;;31.09;27.43;101728.16;5042507;28;96625;-88
2021/06/08 12:24:16;;;;;;;;;;;;;;;31.78;26.20;101712.47;5045304;27;96851;-87
2021/06/08 12:27:04;;;;;;;;;;;;;;;31.70;25.80;101718.81;5042536;28;95997;-85
2021/06/08 12:29:32;;;;;;;;;;;;;;;32.11;25.61;101708.72;5020412;28;97594;-89
2021/06/08 12:32:23;;;;;;;;;;;;;;;32.13;25.02;101706.69;5083152;23;98745;-87
2021/06/08 12:40:22;;;;;;;;;;;;;;;31.66;25.40;101701.88;5020566;28;98938;-85
2021/06/08 12:42:59;;;;;;;;;;;;;;;32.05;24.86;101695.75;5026631;27;100189;-84
2021/06/08 12:45:25;;;;;;;;;;;;;;;31.44;25.57;101709.84;5035386;27;96670;-84
2021/06/08 12:48:21;;;;;;;;;;;;;;;31.70;25.19;101699.69;5022459;28;95865;-84
2021/06/08 12:53:51;;;;;;;;;;;;;;;32.32;24.19;101694.56;4997562;28;98714;-85
2021/06/08 12:56:28;;;;;;;;;;;;;;;32.49;23.71;101684.47;5008963;28;96757;-86
2021/06/08 13:02:00;;;;;;;;;;;;;;;32.79;23.15;101692.78;4931608;28;96621;-88
2021/06/08 13:04:44;;;;;;;;;;;;;;;32.40;24.11;101689.09;5017203;28;98877;-86
2021/06/08 13:07:23;;;;;;;;;;;;;;;33.23;22.76;101695.84;5010708;28;96912;-83
2021/06/08 13:09:57;;;;;;;;;;;;;;;34.05;22.05;101690.69;5011897;28;96646;-87
2021/06/08 13:12:24;;;;;;;;;;;;;;;34.57;21.34;101689.84;5012933;28;100655;-86
2021/06/08 13:15:11;;;;;;;;;;;;;;;33.76;21.91;101685.94;5021988;28;99222;-84
2021/06/08 13:17:39;;;;;;;;;;;;;;;33.19;22.87;101682.69;5012927;28;96507;-86
2021/06/08 13:20:21;;;;;;;;;;;;;;;34.00;22.30;101683.00;5010653;28;96658;-86
2021/06/08 13:25:55;;;;;;;;;;;;;;;34.17;22.41;101691.94;5009126;28;97152;-86
2021/06/08 13:28:34;;;;;;;;;;;;;;;32.61;24.02;101692.13;5005611;28;96896;-87
2021/06/08 13:31:01;;;;;;;;;;;;;;;33.04;23.98;101681.72;5018239;28;97332;-86
2021/06/08 13:33:27;;;;;;;;;;;;;;;32.66;24.24;101692.44;5025331;28;99665;-87
2021/06/08 13:35:54;;;;;;;;;;;;;;;33.58;22.87;101683.47;5019712;28;96861;-87
2021/06/08 13:38:22;;;;;;;;;;;;;;;33.91;22.38;101681.38;5034274;28;96686;-87
2021/06/08 13:40:49;;;;;;;;;;;;;;;34.66;21.76;101684.06;5039933;27;95909;-86
2021/06/08 13:43:17;;;;;;;;;;;;;;;34.35;21.71;101684.22;5039084;27;97747;-85
2021/06/08 13:45:49;;;;;;;;;;;;;;;33.45;22.81;101680.50;5036442;27;99491;-86
2021/06/08 13:48:26;;;;;;;;;;;;;;;32.56;24.05;101678.09;5047555;27;96033;-85
2021/06/08 13:51:19;;;;;;;;;;;;;;;32.00;24.96;101685.34;5038801;27;97641;-82
2021/06/08 13:54:03;;;;;;;;;;;;;;;32.14;24.69;101682.97;5016764;28;99981;-87
2021/06/08 13:56:37;;;;;;;;;;;;;;;31.69;25.17;101676.13;5028905;28;100388;-84
2021/06/08 14:01:52;;;;;;;;;;;;;;;32.64;24.09;101672.59;5037855;27;96668;-84
2021/06/08 14:04:23;;;;;;;;;;;;;;;34.68;22.28;101675.63;5023314;28;96857;-86
2021/06/08 14:09:49;;;;;;;;;;;;;;;34.42;21.48;101672.50;5022663;27;97051;-85
2021/06/08 14:12:16;;;;;;;;;;;;;;;36.45;19.78;101671.25;5025455;28;96876;-88
2021/06/08 14:14:45;;;;;;;;;;;;;;;36.61;19.17;101668.19;5029438;28;98081;-87
2021/06/08 14:19:56;;;;;;;;;;;;;;;33.34;23.02;101669.97;5026664;28;96818;-88
2021/06/08 14:28:01;;;;;;;;;;;;;;;34.34;21.98;101656.97;4975965;28;96705;-85
2021/06/08 14:30:27;;;;;;;;;;;;;;;38.02;17.94;101659.09;5022184;28;96879;-87
2021/06/08 14:32:55;;;;;;;;;;;;;;;41.25;14.85;101649.53;5030591;28;96716;-86